Weather at Épinal-Mirecourt Airport

Public forecast

Using degrees Celsius for public forecast. Weather courtesy of forecast.io.

Current aviation weather report (METAR) for Épinal-Mirecourt Airport

Retrieved 2021/10/23 03:00 UTC (12 minutes ago):

LFSG 230300Z AUTO 19002KT 9999 SCT030 OVC052 06/06 Q1026

Closest aviation forecast (TAF) to Épinal-Mirecourt Airport

Forecast is more than 12 hours old.

Closest forecast is Nancy-Ochey (BA 133) Air Base, 16.2 nm (29.9 km) NNW. Retrieved 2021/10/22 13:13 UTC (14 hours ago):

TAF LFSO 221305Z 2213/2309 CNL